sensor_id;sensor_type;location;lat;lon;timestamp;temperature;humidity
8892;DHT22;4482;54.332;10.118;2023-07-31T00:01:16;13.80;99.90
8892;DHT22;4482;54.332;10.118;2023-07-31T00:03:42;13.80;99.90
8892;DHT22;4482;54.332;10.118;2023-07-31T00:06:09;13.80;99.90
8892;DHT22;4482;54.332;10.118;2023-07-31T00:08:36;13.80;99.90
8892;DHT22;4482;54.332;10.118;2023-07-31T00:11:02;13.80;99.90
8892;DHT22;4482;54.332;10.118;2023-07-31T00:13:30;13.70;99.90
8892;DHT22;4482;54.332;10.118;2023-07-31T00:15:57;13.80;99.90
8892;DHT22;4482;54.332;10.118;2023-07-31T00:18:23;13.80;99.90
8892;DHT22;4482;54.332;10.118;2023-07-31T00:20:50;13.80;99.90
8892;DHT22;4482;54.332;10.118;2023-07-31T00:23:17;13.80;99.90
8892;DHT22;4482;54.332;10.118;2023-07-31T00:25:43;13.80;99.90
8892;DHT22;4482;54.332;10.118;2023-07-31T00:28:10;13.90;99.90
8892;DHT22;4482;54.332;10.118;2023-07-31T00:30:38;13.90;99.90
8892;DHT22;4482;54.332;10.118;2023-07-31T00:33:04;13.90;99.90
8892;DHT22;4482;54.332;10.118;2023-07-31T00:35:31;13.90;99.90
8892;DHT22;4482;54.332;10.118;2023-07-31T00:37:58;13.90;99.90
8892;DHT22;4482;54.332;10.118;2023-07-31T00:40:24;13.80;99.90
8892;DHT22;4482;54.332;10.118;2023-07-31T00:42:51;13.80;99.90
8892;DHT22;4482;54.332;10.118;2023-07-31T00:45:18;13.80;99.90
8892;DHT22;4482;54.332;10.118;2023-07-31T00:47:46;13.80;99.90
8892;DHT22;4482;54.332;10.118;2023-07-31T00:50:12;13.80;99.90
8892;DHT22;4482;54.332;10.118;2023-07-31T00:52:40;13.80;99.90
8892;DHT22;4482;54.332;10.118;2023-07-31T00:55:07;13.70;99.90
8892;DHT22;4482;54.332;10.118;2023-07-31T00:57:34;13.70;99.90
8892;DHT22;4482;54.332;10.118;2023-07-31T01:00:01;13.70;99.90
8892;DHT22;4482;54.332;10.118;2023-07-31T01:02:28;13.80;99.90
8892;DHT22;4482;54.332;10.118;2023-07-31T01:04:56;13.70;99.90
8892;DHT22;4482;54.332;10.118;2023-07-31T01:07:25;13.80;99.90
8892;DHT22;4482;54.332;10.118;2023-07-31T01:09:56;13.70;99.90
8892;DHT22;4482;54.332;10.118;2023-07-31T01:12:23;13.70;99.90
8892;DHT22;4482;54.332;10.118;2023-07-31T01:14:51;13.60;99.90
8892;DHT22;4482;54.332;10.118;2023-07-31T01:17:17;13.70;99.90
8892;DHT22;4482;54.332;10.118;2023-07-31T01:19:46;13.70;99.90
8892;DHT22;4482;54.332;10.118;2023-07-31T01:22:21;13.60;99.90
8892;DHT22;4482;54.332;10.118;2023-07-31T01:24:55;13.70;99.90
8892;DHT22;4482;54.332;10.118;2023-07-31T01:27:24;13.60;99.90
8892;DHT22;4482;54.332;10.118;2023-07-31T01:29:53;13.60;99.90
8892;DHT22;4482;54.332;10.118;2023-07-31T01:32:22;13.60;99.90
8892;DHT22;4482;54.332;10.118;2023-07-31T01:34:49;13.50;99.90
8892;DHT22;4482;54.332;10.118;2023-07-31T01:37:16;13.50;99.90
8892;DHT22;4482;54.332;10.118;2023-07-31T01:39:43;13.40;99.90
8892;DHT22;4482;54.332;10.118;2023-07-31T01:42:09;13.50;99.90
8892;DHT22;4482;54.332;10.118;2023-07-31T01:44:37;13.50;99.90
8892;DHT22;4482;54.332;10.118;2023-07-31T01:47:04;13.40;99.90
8892;DHT22;4482;54.332;10.118;2023-07-31T01:49:31;13.40;99.90
8892;DHT22;4482;54.332;10.118;2023-07-31T01:51:58;13.30;99.90
8892;DHT22;4482;54.332;10.118;2023-07-31T01:54:24;13.30;99.90
8892;DHT22;4482;54.332;10.118;2023-07-31T01:56:51;13.30;99.90
8892;DHT22;4482;54.332;10.118;2023-07-31T01:59:17;13.30;99.90
8892;DHT22;4482;54.332;10.118;2023-07-31T02:01:45;13.30;99.90
8892;DHT22;4482;54.332;10.118;2023-07-31T02:04:12;13.30;99.90
8892;DHT22;4482;54.332;10.118;2023-07-31T02:06:39;13.30;99.90
8892;DHT22;4482;54.332;10.118;2023-07-31T02:09:05;13.30;99.90
8892;DHT22;4482;54.332;10.118;2023-07-31T02:11:32;13.30;99.90
8892;DHT22;4482;54.332;10.118;2023-07-31T02:13:59;13.40;99.90
8892;DHT22;4482;54.332;10.118;2023-07-31T02:16:25;13.40;99.90
8892;DHT22;4482;54.332;10.118;2023-07-31T02:18:53;13.40;99.90
8892;DHT22;4482;54.332;10.118;2023-07-31T02:21:20;13.40;99.90
8892;DHT22;4482;54.332;10.118;2023-07-31T02:23:46;13.40;99.90
8892;DHT22;4482;54.332;10.118;2023-07-31T02:26:13;13.40;99.90
8892;DHT22;4482;54.332;10.118;2023-07-31T02:28:40;13.40;99.90
8892;DHT22;4482;54.332;10.118;2023-07-31T02:31:08;13.40;99.90
8892;DHT22;4482;54.332;10.118;2023-07-31T02:33:35;13.40;99.90
8892;DHT22;4482;54.332;10.118;2023-07-31T02:36:03;13.40;99.90
8892;DHT22;4482;54.332;10.118;2023-07-31T02:38:29;13.50;99.90
8892;DHT22;4482;54.332;10.118;2023-07-31T02:40:56;13.50;99.90
8892;DHT22;4482;54.332;10.118;2023-07-31T02:43:23;13.50;99.90
8892;DHT22;4482;54.332;10.118;2023-07-31T02:45:50;13.50;99.90
8892;DHT22;4482;54.332;10.118;2023-07-31T02:48:17;13.50;99.90
8892;DHT22;4482;54.332;10.118;2023-07-31T02:50:44;13.50;99.90
8892;DHT22;4482;54.332;10.118;2023-07-31T02:53:12;13.60;99.90
8892;DHT22;4482;54.332;10.118;2023-07-31T02:55:38;13.60;99.90
8892;DHT22;4482;54.332;10.118;2023-07-31T02:58:05;13.60;99.90
8892;DHT22;4482;54.332;10.118;2023-07-31T03:00:32;13.60;99.90
8892;DHT22;4482;54.332;10.118;2023-07-31T03:02:58;13.60;99.90
8892;DHT22;4482;54.332;10.118;2023-07-31T03:05:25;13.70;99.90
8892;DHT22;4482;54.332;10.118;2023-07-31T03:07:51;13.70;99.90
8892;DHT22;4482;54.332;10.118;2023-07-31T03:10:19;13.70;99.90
8892;DHT22;4482;54.332;10.118;2023-07-31T03:12:46;13.80;99.90
8892;DHT22;4482;54.332;10.118;2023-07-31T03:15:13;13.80;99.90
8892;DHT22;4482;54.332;10.118;2023-07-31T03:17:39;13.90;99.90
8892;DHT22;4482;54.332;10.118;2023-07-31T03:20:06;13.80;99.90
8892;DHT22;4482;54.332;10.118;2023-07-31T03:22:33;13.90;99.90
8892;DHT22;4482;54.332;10.118;2023-07-31T03:25:01;13.90;99.90
8892;DHT22;4482;54.332;10.118;2023-07-31T03:27:29;13.90;99.90
8892;DHT22;4482;54.332;10.118;2023-07-31T03:29:55;14.00;99.90
8892;DHT22;4482;54.332;10.118;2023-07-31T03:32:22;14.00;99.90
8892;DHT22;4482;54.332;10.118;2023-07-31T03:34:48;14.00;99.90
8892;DHT22;4482;54.332;10.118;2023-07-31T03:37:15;14.10;99.90
8892;DHT22;4482;54.332;10.118;2023-07-31T03:39:42;14.10;99.90
8892;DHT22;4482;54.332;10.118;2023-07-31T03:42:08;14.10;99.90
8892;DHT22;4482;54.332;10.118;2023-07-31T03:44:36;14.10;99.90
8892;DHT22;4482;54.332;10.118;2023-07-31T03:47:03;14.20;99.90
8892;DHT22;4482;54.332;10.118;2023-07-31T03:49:30;14.20;99.90
8892;DHT22;4482;54.332;10.118;2023-07-31T03:52:00;14.20;99.90
8892;DHT22;4482;54.332;10.118;2023-07-31T03:54:26;14.30;99.90
8892;DHT22;4482;54.332;10.118;2023-07-31T03:56:53;14.30;99.90
8892;DHT22;4482;54.332;10.118;2023-07-31T03:59:19;14.30;99.90
8892;DHT22;4482;54.332;10.118;2023-07-31T04:01:47;14.30;99.90
8892;DHT22;4482;54.332;10.118;2023-07-31T04:04:14;14.40;99.90
8892;DHT22;4482;54.332;10.118;2023-07-31T04:06:41;14.40;99.90
8892;DHT22;4482;54.332;10.118;2023-07-31T04:09:07;14.50;99.90
8892;DHT22;4482;54.332;10.118;2023-07-31T04:11:34;14.50;99.90
8892;DHT22;4482;54.332;10.118;2023-07-31T04:14:00;14.50;99.90
8892;DHT22;4482;54.332;10.118;2023-07-31T04:16:27;14.50;99.90
8892;DHT22;4482;54.332;10.118;2023-07-31T04:18:55;14.50;99.90
8892;DHT22;4482;54.332;10.118;2023-07-31T04:21:22;14.50;99.90
8892;DHT22;4482;54.332;10.118;2023-07-31T04:23:48;14.50;99.90
8892;DHT22;4482;54.332;10.118;2023-07-31T04:26:15;14.50;99.90
8892;DHT22;4482;54.332;10.118;2023-07-31T04:28:41;14.50;99.90
8892;DHT22;4482;54.332;10.118;2023-07-31T04:31:08;14.50;99.90
8892;DHT22;4482;54.332;10.118;2023-07-31T04:33:35;14.50;99.90
8892;DHT22;4482;54.332;10.118;2023-07-31T04:36:03;14.50;99.90
8892;DHT22;4482;54.332;10.118;2023-07-31T04:38:29;14.50;99.90
8892;DHT22;4482;54.332;10.118;2023-07-31T04:40:56;14.50;99.90
8892;DHT22;4482;54.332;10.118;2023-07-31T04:43:23;14.50;99.90
8892;DHT22;4482;54.332;10.118;2023-07-31T04:45:49;14.50;99.90
8892;DHT22;4482;54.332;10.118;2023-07-31T04:48:16;14.50;99.90
8892;DHT22;4482;54.332;10.118;2023-07-31T04:50:42;14.50;99.90
8892;DHT22;4482;54.332;10.118;2023-07-31T04:53:10;14.50;99.90
8892;DHT22;4482;54.332;10.118;2023-07-31T04:55:37;14.40;99.90
8892;DHT22;4482;54.332;10.118;2023-07-31T04:58:04;14.60;99.90
8892;DHT22;4482;54.332;10.118;2023-07-31T05:00:31;14.50;99.90
8892;DHT22;4482;54.332;10.118;2023-07-31T05:02:57;14.50;99.90
8892;DHT22;4482;54.332;10.118;2023-07-31T05:05:24;14.50;99.90
8892;DHT22;4482;54.332;10.118;2023-07-31T05:07:50;14.60;99.90
8892;DHT22;4482;54.332;10.118;2023-07-31T05:10:18;14.50;99.90
8892;DHT22;4482;54.332;10.118;2023-07-31T05:12:45;14.50;99.90
8892;DHT22;4482;54.332;10.118;2023-07-31T05:15:12;14.50;99.90
8892;DHT22;4482;54.332;10.118;2023-07-31T05:17:38;14.60;99.90
8892;DHT22;4482;54.332;10.118;2023-07-31T05:20:05;14.60;99.90
8892;DHT22;4482;54.332;10.118;2023-07-31T05:22:33;14.70;99.90
8892;DHT22;4482;54.332;10.118;2023-07-31T05:24:59;14.70;99.90
8892;DHT22;4482;54.332;10.118;2023-07-31T05:27:27;14.70;99.90
8892;DHT22;4482;54.332;10.118;2023-07-31T05:29:54;14.70;99.90
8892;DHT22;4482;54.332;10.118;2023-07-31T05:32:20;14.80;99.90
8892;DHT22;4482;54.332;10.118;2023-07-31T05:34:47;14.70;99.90
8892;DHT22;4482;54.332;10.118;2023-07-31T05:37:14;14.70;99.90
8892;DHT22;4482;54.332;10.118;2023-07-31T05:39:40;14.80;99.90
8892;DHT22;4482;54.332;10.118;2023-07-31T05:42:07;14.80;99.90
8892;DHT22;4482;54.332;10.118;2023-07-31T05:44:35;14.80;99.90
8892;DHT22;4482;54.332;10.118;2023-07-31T05:47:02;14.80;99.90
8892;DHT22;4482;54.332;10.118;2023-07-31T05:49:28;14.80;99.90
8892;DHT22;4482;54.332;10.118;2023-07-31T05:51:55;14.80;99.90
8892;DHT22;4482;54.332;10.118;2023-07-31T05:54:21;14.80;99.90
8892;DHT22;4482;54.332;10.118;2023-07-31T05:56:48;14.90;99.90
8892;DHT22;4482;54.332;10.118;2023-07-31T05:59:15;15.00;99.90
8892;DHT22;4482;54.332;10.118;2023-07-31T06:01:43;14.90;99.90
8892;DHT22;4482;54.332;10.118;2023-07-31T06:04:10;15.00;99.90
8892;DHT22;4482;54.332;10.118;2023-07-31T06:06:36;15.00;99.90
8892;DHT22;4482;54.332;10.118;2023-07-31T06:09:03;15.10;99.90
8892;DHT22;4482;54.332;10.118;2023-07-31T06:11:30;15.10;99.90
8892;DHT22;4482;54.332;10.118;2023-07-31T06:13:56;15.10;99.90
8892;DHT22;4482;54.332;10.118;2023-07-31T06:16:23;15.10;99.90
8892;DHT22;4482;54.332;10.118;2023-07-31T06:18:51;15.10;99.90
8892;DHT22;4482;54.332;10.118;2023-07-31T06:21:18;15.10;99.90
8892;DHT22;4482;54.332;10.118;2023-07-31T06:23:44;15.20;99.90
8892;DHT22;4482;54.332;10.118;2023-07-31T06:26:11;15.20;99.90
8892;DHT22;4482;54.332;10.118;2023-07-31T06:28:37;15.30;99.90
8892;DHT22;4482;54.332;10.118;2023-07-31T06:31:04;15.40;99.90
8892;DHT22;4482;54.332;10.118;2023-07-31T06:33:31;15.40;99.90
8892;DHT22;4482;54.332;10.118;2023-07-31T06:35:59;15.40;99.90
8892;DHT22;4482;54.332;10.118;2023-07-31T06:38:26;15.40;99.90
8892;DHT22;4482;54.332;10.118;2023-07-31T06:40:52;15.40;99.90
8892;DHT22;4482;54.332;10.118;2023-07-31T06:43:19;15.40;99.90
8892;DHT22;4482;54.332;10.118;2023-07-31T06:45:46;15.40;99.90
8892;DHT22;4482;54.332;10.118;2023-07-31T06:48:15;15.30;99.90
8892;DHT22;4482;54.332;10.118;2023-07-31T06:50:42;15.30;99.90
8892;DHT22;4482;54.332;10.118;2023-07-31T06:53:10;15.30;99.90
8892;DHT22;4482;54.332;10.118;2023-07-31T06:55:36;15.30;99.90
8892;DHT22;4482;54.332;10.118;2023-07-31T06:58:03;15.30;99.90
8892;DHT22;4482;54.332;10.118;2023-07-31T07:00:30;15.40;99.90
8892;DHT22;4482;54.332;10.118;2023-07-31T07:02:57;15.30;99.90
8892;DHT22;4482;54.332;10.118;2023-07-31T07:05:24;15.40;99.90
8892;DHT22;4482;54.332;10.118;2023-07-31T07:07:50;15.40;99.90
8892;DHT22;4482;54.332;10.118;2023-07-31T07:10:19;15.50;99.90
8892;DHT22;4482;54.332;10.118;2023-07-31T07:12:45;15.60;99.90
8892;DHT22;4482;54.332;10.118;2023-07-31T07:15:12;15.60;99.90
8892;DHT22;4482;54.332;10.118;2023-07-31T07:17:39;15.60;99.90
8892;DHT22;4482;54.332;10.118;2023-07-31T07:20:06;15.60;99.90
8892;DHT22;4482;54.332;10.118;2023-07-31T07:22:33;15.70;99.90
8892;DHT22;4482;54.332;10.118;2023-07-31T07:24:59;15.80;99.90
8892;DHT22;4482;54.332;10.118;2023-07-31T07:27:27;15.70;99.90
8892;DHT22;4482;54.332;10.118;2023-07-31T07:29:54;15.80;99.90
8892;DHT22;4482;54.332;10.118;2023-07-31T07:32:21;15.80;99.90
8892;DHT22;4482;54.332;10.118;2023-07-31T07:34:48;15.80;99.90
8892;DHT22;4482;54.332;10.118;2023-07-31T07:37:14;15.90;99.90
8892;DHT22;4482;54.332;10.118;2023-07-31T07:39:41;15.90;99.90
8892;DHT22;4482;54.332;10.118;2023-07-31T07:42:08;15.90;99.90
8892;DHT22;4482;54.332;10.118;2023-07-31T07:44:36;16.00;99.90
8892;DHT22;4482;54.332;10.118;2023-07-31T07:47:02;16.00;99.90
8892;DHT22;4482;54.332;10.118;2023-07-31T07:49:31;16.00;99.90
8892;DHT22;4482;54.332;10.118;2023-07-31T07:51:57;16.00;99.90
8892;DHT22;4482;54.332;10.118;2023-07-31T07:54:24;16.00;99.90
8892;DHT22;4482;54.332;10.118;2023-07-31T07:56:51;16.00;99.90
8892;DHT22;4482;54.332;10.118;2023-07-31T07:59:18;16.10;99.90
8892;DHT22;4482;54.332;10.118;2023-07-31T08:01:45;16.10;99.90
8892;DHT22;4482;54.332;10.118;2023-07-31T08:04:12;16.00;99.90
8892;DHT22;4482;54.332;10.118;2023-07-31T08:06:39;16.00;99.90
8892;DHT22;4482;54.332;10.118;2023-07-31T08:09:06;16.00;99.90
8892;DHT22;4482;54.332;10.118;2023-07-31T08:11:34;16.10;99.90
8892;DHT22;4482;54.332;10.118;2023-07-31T08:14:00;16.20;99.90
8892;DHT22;4482;54.332;10.118;2023-07-31T08:16:27;16.20;99.90
8892;DHT22;4482;54.332;10.118;2023-07-31T08:18:55;16.30;99.90
8892;DHT22;4482;54.332;10.118;2023-07-31T08:21:22;16.40;99.90
8892;DHT22;4482;54.332;10.118;2023-07-31T08:23:49;16.40;99.90
8892;DHT22;4482;54.332;10.118;2023-07-31T08:26:15;16.30;99.90
8892;DHT22;4482;54.332;10.118;2023-07-31T08:28:42;16.30;99.90
8892;DHT22;4482;54.332;10.118;2023-07-31T08:31:09;16.20;99.90
8892;DHT22;4482;54.332;10.118;2023-07-31T08:33:36;16.20;99.90
8892;DHT22;4482;54.332;10.118;2023-07-31T08:36:04;16.30;99.90
8892;DHT22;4482;54.332;10.118;2023-07-31T08:38:31;16.30;99.90
8892;DHT22;4482;54.332;10.118;2023-07-31T08:40:57;16.30;99.90
8892;DHT22;4482;54.332;10.118;2023-07-31T08:43:25;16.30;99.90
8892;DHT22;4482;54.332;10.118;2023-07-31T08:45:52;16.30;99.90
8892;DHT22;4482;54.332;10.118;2023-07-31T08:48:21;16.40;99.90
8892;DHT22;4482;54.332;10.118;2023-07-31T08:50:49;16.40;99.90
8892;DHT22;4482;54.332;10.118;2023-07-31T08:53:17;16.50;99.90
8892;DHT22;4482;54.332;10.118;2023-07-31T08:55:44;16.60;99.90
8892;DHT22;4482;54.332;10.118;2023-07-31T08:58:11;16.60;99.90
8892;DHT22;4482;54.332;10.118;2023-07-31T09:00:38;16.80;99.90
8892;DHT22;4482;54.332;10.118;2023-07-31T09:03:07;16.80;99.90
8892;DHT22;4482;54.332;10.118;2023-07-31T09:05:35;16.80;99.90
8892;DHT22;4482;54.332;10.118;2023-07-31T09:08:02;16.80;99.90
8892;DHT22;4482;54.332;10.118;2023-07-31T09:10:32;16.80;99.90
8892;DHT22;4482;54.332;10.118;2023-07-31T09:12:58;16.80;99.90
8892;DHT22;4482;54.332;10.118;2023-07-31T09:15:25;16.70;99.90
8892;DHT22;4482;54.332;10.118;2023-07-31T09:17:58;16.60;99.90
8892;DHT22;4482;54.332;10.118;2023-07-31T09:20:25;16.60;99.90
8892;DHT22;4482;54.332;10.118;2023-07-31T09:22:52;16.50;99.90
8892;DHT22;4482;54.332;10.118;2023-07-31T09:25:19;16.50;99.90
8892;DHT22;4482;54.332;10.118;2023-07-31T09:27:48;16.30;99.90
8892;DHT22;4482;54.332;10.118;2023-07-31T09:30:15;16.30;99.90
8892;DHT22;4482;54.332;10.118;2023-07-31T09:32:42;16.20;99.90
8892;DHT22;4482;54.332;10.118;2023-07-31T09:35:13;16.20;99.90
8892;DHT22;4482;54.332;10.118;2023-07-31T09:37:40;16.20;99.90
8892;DHT22;4482;54.332;10.118;2023-07-31T09:40:07;16.10;99.90
8892;DHT22;4482;54.332;10.118;2023-07-31T09:42:34;16.10;99.90
8892;DHT22;4482;54.332;10.118;2023-07-31T09:45:08;16.10;99.90
8892;DHT22;4482;54.332;10.118;2023-07-31T09:47:36;16.10;99.90
8892;DHT22;4482;54.332;10.118;2023-07-31T09:50:07;16.20;99.90
8892;DHT22;4482;54.332;10.118;2023-07-31T09:52:33;16.20;99.90
8892;DHT22;4482;54.332;10.118;2023-07-31T09:55:00;16.20;99.90
8892;DHT22;4482;54.332;10.118;2023-07-31T09:57:27;16.30;99.90
8892;DHT22;4482;54.332;10.118;2023-07-31T09:59:54;16.20;99.90
8892;DHT22;4482;54.332;10.118;2023-07-31T10:02:22;16.20;99.90
8892;DHT22;4482;54.332;10.118;2023-07-31T10:04:49;16.20;99.90
8892;DHT22;4482;54.332;10.118;2023-07-31T10:07:16;16.20;99.90
8892;DHT22;4482;54.332;10.118;2023-07-31T10:09:43;16.10;99.90
8892;DHT22;4482;54.332;10.118;2023-07-31T10:12:11;16.10;99.90
8892;DHT22;4482;54.332;10.118;2023-07-31T10:14:38;16.10;99.90
8892;DHT22;4482;54.332;10.118;2023-07-31T10:17:06;16.20;99.90
8892;DHT22;4482;54.332;10.118;2023-07-31T10:19:35;16.10;99.90
8892;DHT22;4482;54.332;10.118;2023-07-31T10:22:03;16.10;99.90
8892;DHT22;4482;54.332;10.118;2023-07-31T10:24:31;16.20;99.90
8892;DHT22;4482;54.332;10.118;2023-07-31T10:26:58;16.30;99.90
8892;DHT22;4482;54.332;10.118;2023-07-31T10:29:26;16.30;99.90
8892;DHT22;4482;54.332;10.118;2023-07-31T10:31:55;16.40;99.90
8892;DHT22;4482;54.332;10.118;2023-07-31T10:34:22;16.50;99.90
8892;DHT22;4482;54.332;10.118;2023-07-31T10:36:50;16.60;99.90
8892;DHT22;4482;54.332;10.118;2023-07-31T10:39:37;16.70;99.90
8892;DHT22;4482;54.332;10.118;2023-07-31T10:42:11;16.70;99.90
8892;DHT22;4482;54.332;10.118;2023-07-31T10:44:38;16.80;99.90
8892;DHT22;4482;54.332;10.118;2023-07-31T10:47:06;16.80;99.90
8892;DHT22;4482;54.332;10.118;2023-07-31T10:49:33;16.80;99.90
8892;DHT22;4482;54.332;10.118;2023-07-31T10:52:01;16.80;99.90
8892;DHT22;4482;54.332;10.118;2023-07-31T10:54:29;16.80;99.90
8892;DHT22;4482;54.332;10.118;2023-07-31T10:56:55;16.80;99.90
8892;DHT22;4482;54.332;10.118;2023-07-31T10:59:26;16.80;99.90
8892;DHT22;4482;54.332;10.118;2023-07-31T11:01:54;16.70;99.90
8892;DHT22;4482;54.332;10.118;2023-07-31T11:04:22;16.80;99.90
8892;DHT22;4482;54.332;10.118;2023-07-31T11:06:56;16.80;99.90
8892;DHT22;4482;54.332;10.118;2023-07-31T11:09:26;16.90;99.90
8892;DHT22;4482;54.332;10.118;2023-07-31T11:11:54;16.90;99.90
8892;DHT22;4482;54.332;10.118;2023-07-31T11:14:21;16.90;99.90
8892;DHT22;4482;54.332;10.118;2023-07-31T11:16:49;16.90;99.90
8892;DHT22;4482;54.332;10.118;2023-07-31T11:19:20;17.00;99.90
8892;DHT22;4482;54.332;10.118;2023-07-31T11:21:47;16.90;99.90
8892;DHT22;4482;54.332;10.118;2023-07-31T11:24:14;17.10;99.90
8892;DHT22;4482;54.332;10.118;2023-07-31T11:26:48;17.00;99.90
8892;DHT22;4482;54.332;10.118;2023-07-31T11:29:15;16.90;99.90
8892;DHT22;4482;54.332;10.118;2023-07-31T11:31:42;16.90;99.90
8892;DHT22;4482;54.332;10.118;2023-07-31T11:34:08;16.90;99.90
8892;DHT22;4482;54.332;10.118;2023-07-31T11:36:35;17.00;99.90
8892;DHT22;4482;54.332;10.118;2023-07-31T11:39:04;16.90;99.90
8892;DHT22;4482;54.332;10.118;2023-07-31T11:41:31;16.90;99.90
8892;DHT22;4482;54.332;10.118;2023-07-31T11:44:00;16.80;99.90
8892;DHT22;4482;54.332;10.118;2023-07-31T11:46:27;16.80;99.90
8892;DHT22;4482;54.332;10.118;2023-07-31T11:48:57;16.90;99.90
8892;DHT22;4482;54.332;10.118;2023-07-31T11:51:25;16.90;99.90
8892;DHT22;4482;54.332;10.118;2023-07-31T11:53:53;16.90;99.90
8892;DHT22;4482;54.332;10.118;2023-07-31T11:56:21;16.80;99.90
8892;DHT22;4482;54.332;10.118;2023-07-31T11:58:49;16.80;99.90
8892;DHT22;4482;54.332;10.118;2023-07-31T12:01:18;16.70;99.90
8892;DHT22;4482;54.332;10.118;2023-07-31T12:03:45;16.60;99.90
8892;DHT22;4482;54.332;10.118;2023-07-31T12:06:12;16.50;99.90
8892;DHT22;4482;54.332;10.118;2023-07-31T12:08:38;16.50;99.90
8892;DHT22;4482;54.332;10.118;2023-07-31T12:11:07;16.40;99.90
8892;DHT22;4482;54.332;10.118;2023-07-31T12:13:35;16.40;99.90
8892;DHT22;4482;54.332;10.118;2023-07-31T12:16:02;16.30;99.90
8892;DHT22;4482;54.332;10.118;2023-07-31T12:18:33;16.30;99.90
8892;DHT22;4482;54.332;10.118;2023-07-31T12:21:00;16.20;99.90
8892;DHT22;4482;54.332;10.118;2023-07-31T12:23:27;16.20;99.90
8892;DHT22;4482;54.332;10.118;2023-07-31T12:26:00;16.30;99.90
8892;DHT22;4482;54.332;10.118;2023-07-31T12:28:28;16.20;99.90
8892;DHT22;4482;54.332;10.118;2023-07-31T12:30:56;16.10;99.90
8892;DHT22;4482;54.332;10.118;2023-07-31T12:33:23;16.00;99.90
8892;DHT22;4482;54.332;10.118;2023-07-31T12:35:51;16.00;99.90
8892;DHT22;4482;54.332;10.118;2023-07-31T12:38:19;16.00;99.90
8892;DHT22;4482;54.332;10.118;2023-07-31T12:40:50;16.10;99.90
8892;DHT22;4482;54.332;10.118;2023-07-31T12:43:25;16.20;99.90
8892;DHT22;4482;54.332;10.118;2023-07-31T12:45:57;16.20;99.90
8892;DHT22;4482;54.332;10.118;2023-07-31T12:48:24;16.20;99.90
8892;DHT22;4482;54.332;10.118;2023-07-31T12:50:52;16.20;99.90
8892;DHT22;4482;54.332;10.118;2023-07-31T12:53:18;16.30;99.90
8892;DHT22;4482;54.332;10.118;2023-07-31T12:55:45;16.20;99.90
8892;DHT22;4482;54.332;10.118;2023-07-31T12:58:11;16.10;99.90
8892;DHT22;4482;54.332;10.118;2023-07-31T13:00:38;16.20;99.90
8892;DHT22;4482;54.332;10.118;2023-07-31T13:03:05;16.20;99.90
8892;DHT22;4482;54.332;10.118;2023-07-31T13:05:31;16.30;99.90
8892;DHT22;4482;54.332;10.118;2023-07-31T13:07:59;16.30;99.90
8892;DHT22;4482;54.332;10.118;2023-07-31T13:10:26;16.40;99.90
8892;DHT22;4482;54.332;10.118;2023-07-31T13:12:54;16.40;99.90
8892;DHT22;4482;54.332;10.118;2023-07-31T13:15:20;16.40;99.90
8892;DHT22;4482;54.332;10.118;2023-07-31T13:17:47;16.30;99.90
8892;DHT22;4482;54.332;10.118;2023-07-31T13:20:13;16.30;99.90
8892;DHT22;4482;54.332;10.118;2023-07-31T13:22:40;16.30;99.90
8892;DHT22;4482;54.332;10.118;2023-07-31T13:25:08;16.30;99.90
8892;DHT22;4482;54.332;10.118;2023-07-31T13:27:35;16.20;99.90
8892;DHT22;4482;54.332;10.118;2023-07-31T13:30:02;16.20;99.90
8892;DHT22;4482;54.332;10.118;2023-07-31T13:32:29;16.20;99.90
8892;DHT22;4482;54.332;10.118;2023-07-31T13:34:56;16.30;99.90
8892;DHT22;4482;54.332;10.118;2023-07-31T13:37:22;16.50;99.90
8892;DHT22;4482;54.332;10.118;2023-07-31T13:39:49;16.80;99.90
8892;DHT22;4482;54.332;10.118;2023-07-31T13:42:17;17.00;99.90
8892;DHT22;4482;54.332;10.118;2023-07-31T13:44:43;16.90;99.90
8892;DHT22;4482;54.332;10.118;2023-07-31T13:47:10;16.90;99.90
8892;DHT22;4482;54.332;10.118;2023-07-31T13:49:37;16.80;99.90
8892;DHT22;4482;54.332;10.118;2023-07-31T13:52:04;16.70;99.90
8892;DHT22;4482;54.332;10.118;2023-07-31T13:54:31;16.70;99.90
8892;DHT22;4482;54.332;10.118;2023-07-31T13:56:57;16.70;99.90
8892;DHT22;4482;54.332;10.118;2023-07-31T13:59:25;16.70;99.90
8892;DHT22;4482;54.332;10.118;2023-07-31T14:01:52;16.90;99.90
8892;DHT22;4482;54.332;10.118;2023-07-31T14:04:19;16.90;99.90
8892;DHT22;4482;54.332;10.118;2023-07-31T14:06:45;17.10;99.90
8892;DHT22;4482;54.332;10.118;2023-07-31T14:09:13;17.40;99.90
8892;DHT22;4482;54.332;10.118;2023-07-31T14:11:40;17.40;99.90
8892;DHT22;4482;54.332;10.118;2023-07-31T14:14:06;17.40;99.90
8892;DHT22;4482;54.332;10.118;2023-07-31T14:16:34;17.60;99.90
8892;DHT22;4482;54.332;10.118;2023-07-31T14:19:01;17.70;99.90
8892;DHT22;4482;54.332;10.118;2023-07-31T14:21:27;17.80;99.90
8892;DHT22;4482;54.332;10.118;2023-07-31T14:23:54;17.90;99.90
8892;DHT22;4482;54.332;10.118;2023-07-31T14:26:21;17.90;99.90
8892;DHT22;4482;54.332;10.118;2023-07-31T14:28:47;17.80;99.90
8892;DHT22;4482;54.332;10.118;2023-07-31T14:31:14;17.70;99.90
8892;DHT22;4482;54.332;10.118;2023-07-31T14:33:42;17.70;99.90
8892;DHT22;4482;54.332;10.118;2023-07-31T14:36:09;17.80;99.90
8892;DHT22;4482;54.332;10.118;2023-07-31T14:38:35;17.80;99.90
8892;DHT22;4482;54.332;10.118;2023-07-31T14:41:02;17.80;99.90
8892;DHT22;4482;54.332;10.118;2023-07-31T14:43:29;17.90;99.90
8892;DHT22;4482;54.332;10.118;2023-07-31T14:45:55;18.00;99.90
8892;DHT22;4482;54.332;10.118;2023-07-31T14:48:24;18.00;99.90
8892;DHT22;4482;54.332;10.118;2023-07-31T14:50:52;18.00;99.90
8892;DHT22;4482;54.332;10.118;2023-07-31T14:53:19;18.00;99.90
8892;DHT22;4482;54.332;10.118;2023-07-31T14:55:46;17.90;99.90
8892;DHT22;4482;54.332;10.118;2023-07-31T14:58:13;17.90;99.90
8892;DHT22;4482;54.332;10.118;2023-07-31T15:00:40;17.90;99.90
8892;DHT22;4482;54.332;10.118;2023-07-31T15:03:06;17.80;99.90
8892;DHT22;4482;54.332;10.118;2023-07-31T15:05:33;17.70;99.90
8892;DHT22;4482;54.332;10.118;2023-07-31T15:08:01;17.60;99.90
8892;DHT22;4482;54.332;10.118;2023-07-31T15:10:37;17.50;99.90
8892;DHT22;4482;54.332;10.118;2023-07-31T15:13:05;17.60;99.90
8892;DHT22;4482;54.332;10.118;2023-07-31T15:15:33;17.60;99.90
8892;DHT22;4482;54.332;10.118;2023-07-31T15:18:06;17.70;99.90
8892;DHT22;4482;54.332;10.118;2023-07-31T15:20:33;17.70;99.90
8892;DHT22;4482;54.332;10.118;2023-07-31T15:22:59;17.80;99.90
8892;DHT22;4482;54.332;10.118;2023-07-31T15:25:28;17.80;99.90
8892;DHT22;4482;54.332;10.118;2023-07-31T15:27:54;17.70;99.90
8892;DHT22;4482;54.332;10.118;2023-07-31T15:30:23;17.60;99.90
8892;DHT22;4482;54.332;10.118;2023-07-31T15:32:53;17.50;99.90
8892;DHT22;4482;54.332;10.118;2023-07-31T15:35:20;17.50;99.90
8892;DHT22;4482;54.332;10.118;2023-07-31T15:37:50;17.50;99.90
8892;DHT22;4482;54.332;10.118;2023-07-31T15:40:17;17.60;99.90
8892;DHT22;4482;54.332;10.118;2023-07-31T15:42:45;17.60;99.90
8892;DHT22;4482;54.332;10.118;2023-07-31T15:45:11;17.60;99.90